sensor_id;sensor_type;location;lat;lon;timestamp;temperature;humidity
31809;DHT22;18379;48.208;-1.518;2023-07-29T00:04:41;17.80;99.90
31809;DHT22;18379;48.208;-1.518;2023-07-29T00:09:42;17.80;99.90
31809;DHT22;18379;48.208;-1.518;2023-07-29T00:14:43;17.70;99.90
31809;DHT22;18379;48.208;-1.518;2023-07-29T00:19:43;17.80;99.90
31809;DHT22;18379;48.208;-1.518;2023-07-29T00:24:44;17.90;99.90
31809;DHT22;18379;48.208;-1.518;2023-07-29T00:29:45;17.90;99.90
31809;DHT22;18379;48.208;-1.518;2023-07-29T00:34:46;17.90;99.90
31809;DHT22;18379;48.208;-1.518;2023-07-29T00:39:46;17.90;99.90
31809;DHT22;18379;48.208;-1.518;2023-07-29T00:44:47;17.80;99.90
31809;DHT22;18379;48.208;-1.518;2023-07-29T00:49:49;17.80;99.90
31809;DHT22;18379;48.208;-1.518;2023-07-29T00:54:50;17.80;99.90
31809;DHT22;18379;48.208;-1.518;2023-07-29T00:59:51;17.80;99.90
31809;DHT22;18379;48.208;-1.518;2023-07-29T01:04:54;17.80;99.90
31809;DHT22;18379;48.208;-1.518;2023-07-29T01:10:01;17.80;99.90
31809;DHT22;18379;48.208;-1.518;2023-07-29T01:20:24;17.90;99.90
31809;DHT22;18379;48.208;-1.518;2023-07-29T01:25:25;17.90;99.90
31809;DHT22;18379;48.208;-1.518;2023-07-29T01:30:31;18.00;99.90
31809;DHT22;18379;48.208;-1.518;2023-07-29T01:35:44;18.10;99.90
31809;DHT22;18379;48.208;-1.518;2023-07-29T01:40:46;18.00;99.90
31809;DHT22;18379;48.208;-1.518;2023-07-29T01:45:49;18.00;99.90
31809;DHT22;18379;48.208;-1.518;2023-07-29T01:50:50;18.10;99.90
31809;DHT22;18379;48.208;-1.518;2023-07-29T01:55:50;18.20;99.90
31809;DHT22;18379;48.208;-1.518;2023-07-29T02:00:51;18.20;99.90
31809;DHT22;18379;48.208;-1.518;2023-07-29T02:05:52;18.10;99.90
31809;DHT22;18379;48.208;-1.518;2023-07-29T02:10:53;18.20;99.90
31809;DHT22;18379;48.208;-1.518;2023-07-29T02:15:53;18.20;99.90
31809;DHT22;18379;48.208;-1.518;2023-07-29T02:20:54;18.10;99.90
31809;DHT22;18379;48.208;-1.518;2023-07-29T02:25:55;18.20;99.90
31809;DHT22;18379;48.208;-1.518;2023-07-29T02:31:21;18.20;99.90
31809;DHT22;18379;48.208;-1.518;2023-07-29T02:36:21;18.20;99.90
31809;DHT22;18379;48.208;-1.518;2023-07-29T02:41:22;18.20;99.90
31809;DHT22;18379;48.208;-1.518;2023-07-29T02:46:23;18.10;99.90
31809;DHT22;18379;48.208;-1.518;2023-07-29T02:51:24;18.20;99.90
31809;DHT22;18379;48.208;-1.518;2023-07-29T02:56:24;18.20;99.90
31809;DHT22;18379;48.208;-1.518;2023-07-29T03:01:25;18.30;99.90
31809;DHT22;18379;48.208;-1.518;2023-07-29T03:06:26;18.20;99.90
31809;DHT22;18379;48.208;-1.518;2023-07-29T03:11:27;18.30;99.90
31809;DHT22;18379;48.208;-1.518;2023-07-29T03:16:27;18.50;99.90
31809;DHT22;18379;48.208;-1.518;2023-07-29T03:21:28;18.50;99.90
31809;DHT22;18379;48.208;-1.518;2023-07-29T03:26:29;18.50;99.90
31809;DHT22;18379;48.208;-1.518;2023-07-29T03:31:30;18.50;99.90
31809;DHT22;18379;48.208;-1.518;2023-07-29T03:36:31;18.50;99.90
31809;DHT22;18379;48.208;-1.518;2023-07-29T03:41:31;18.50;99.90
31809;DHT22;18379;48.208;-1.518;2023-07-29T03:46:32;18.50;99.90
31809;DHT22;18379;48.208;-1.518;2023-07-29T03:51:33;18.40;99.90
31809;DHT22;18379;48.208;-1.518;2023-07-29T03:56:34;18.30;99.90
31809;DHT22;18379;48.208;-1.518;2023-07-29T04:01:35;18.30;99.90
31809;DHT22;18379;48.208;-1.518;2023-07-29T04:06:36;18.20;99.90
31809;DHT22;18379;48.208;-1.518;2023-07-29T04:11:37;18.20;99.90
31809;DHT22;18379;48.208;-1.518;2023-07-29T04:16:38;18.20;99.90
31809;DHT22;18379;48.208;-1.518;2023-07-29T04:21:39;18.20;99.90
31809;DHT22;18379;48.208;-1.518;2023-07-29T04:26:39;18.20;99.90
31809;DHT22;18379;48.208;-1.518;2023-07-29T04:31:40;18.20;99.90
31809;DHT22;18379;48.208;-1.518;2023-07-29T04:36:41;18.30;99.90
31809;DHT22;18379;48.208;-1.518;2023-07-29T04:41:42;18.30;99.90
31809;DHT22;18379;48.208;-1.518;2023-07-29T04:46:42;18.40;99.90
31809;DHT22;18379;48.208;-1.518;2023-07-29T04:51:43;18.40;99.90
31809;DHT22;18379;48.208;-1.518;2023-07-29T04:56:44;18.40;99.90
31809;DHT22;18379;48.208;-1.518;2023-07-29T05:01:45;18.50;99.90
31809;DHT22;18379;48.208;-1.518;2023-07-29T05:06:46;18.50;99.90
31809;DHT22;18379;48.208;-1.518;2023-07-29T05:11:47;18.50;99.90
31809;DHT22;18379;48.208;-1.518;2023-07-29T05:16:48;18.50;99.90
31809;DHT22;18379;48.208;-1.518;2023-07-29T05:21:49;18.50;99.90
31809;DHT22;18379;48.208;-1.518;2023-07-29T05:26:50;18.60;99.90
31809;DHT22;18379;48.208;-1.518;2023-07-29T05:31:51;18.70;99.90
31809;DHT22;18379;48.208;-1.518;2023-07-29T05:36:52;18.80;99.90
31809;DHT22;18379;48.208;-1.518;2023-07-29T05:41:52;18.70;99.90
31809;DHT22;18379;48.208;-1.518;2023-07-29T05:46:53;18.60;99.90
31809;DHT22;18379;48.208;-1.518;2023-07-29T05:51:54;18.60;99.90
31809;DHT22;18379;48.208;-1.518;2023-07-29T05:56:55;18.60;99.90
31809;DHT22;18379;48.208;-1.518;2023-07-29T06:01:56;18.70;99.90
31809;DHT22;18379;48.208;-1.518;2023-07-29T06:06:56;18.80;99.90
31809;DHT22;18379;48.208;-1.518;2023-07-29T06:11:57;18.90;99.90
31809;DHT22;18379;48.208;-1.518;2023-07-29T06:16:58;18.80;99.90
31809;DHT22;18379;48.208;-1.518;2023-07-29T06:21:59;18.90;99.90
31809;DHT22;18379;48.208;-1.518;2023-07-29T06:27:01;19.00;99.90
31809;DHT22;18379;48.208;-1.518;2023-07-29T06:32:04;19.10;99.90
31809;DHT22;18379;48.208;-1.518;2023-07-29T06:37:04;19.20;99.90
31809;DHT22;18379;48.208;-1.518;2023-07-29T06:42:05;19.40;99.90
31809;DHT22;18379;48.208;-1.518;2023-07-29T06:47:06;19.40;99.90
31809;DHT22;18379;48.208;-1.518;2023-07-29T06:52:07;19.20;99.90
31809;DHT22;18379;48.208;-1.518;2023-07-29T06:57:08;19.20;99.90
31809;DHT22;18379;48.208;-1.518;2023-07-29T07:02:09;19.20;99.90
31809;DHT22;18379;48.208;-1.518;2023-07-29T07:07:10;19.30;99.90
31809;DHT22;18379;48.208;-1.518;2023-07-29T07:12:11;19.40;99.90
31809;DHT22;18379;48.208;-1.518;2023-07-29T07:17:11;19.60;99.90
31809;DHT22;18379;48.208;-1.518;2023-07-29T07:22:12;19.60;99.90
31809;DHT22;18379;48.208;-1.518;2023-07-29T07:27:13;19.80;99.90
31809;DHT22;18379;48.208;-1.518;2023-07-29T07:32:13;19.80;99.90
31809;DHT22;18379;48.208;-1.518;2023-07-29T07:37:14;19.70;99.90
31809;DHT22;18379;48.208;-1.518;2023-07-29T07:42:15;19.70;99.90
31809;DHT22;18379;48.208;-1.518;2023-07-29T07:47:15;19.90;99.90
31809;DHT22;18379;48.208;-1.518;2023-07-29T07:52:16;20.00;99.90
31809;DHT22;18379;48.208;-1.518;2023-07-29T07:57:17;20.10;99.90
31809;DHT22;18379;48.208;-1.518;2023-07-29T08:02:18;20.10;99.90
31809;DHT22;18379;48.208;-1.518;2023-07-29T08:07:19;19.90;99.90
31809;DHT22;18379;48.208;-1.518;2023-07-29T08:12:20;19.70;99.90
31809;DHT22;18379;48.208;-1.518;2023-07-29T08:17:20;19.80;99.90
31809;DHT22;18379;48.208;-1.518;2023-07-29T08:22:21;20.20;99.90
31809;DHT22;18379;48.208;-1.518;2023-07-29T08:27:22;20.10;99.90
31809;DHT22;18379;48.208;-1.518;2023-07-29T08:32:23;20.20;99.90
31809;DHT22;18379;48.208;-1.518;2023-07-29T08:37:25;20.50;99.90
31809;DHT22;18379;48.208;-1.518;2023-07-29T08:42:31;20.60;99.90
31809;DHT22;18379;48.208;-1.518;2023-07-29T08:47:32;20.80;99.90
31809;DHT22;18379;48.208;-1.518;2023-07-29T08:52:33;20.80;99.90
31809;DHT22;18379;48.208;-1.518;2023-07-29T08:57:36;20.70;99.90
31809;DHT22;18379;48.208;-1.518;2023-07-29T09:02:37;21.00;99.90
31809;DHT22;18379;48.208;-1.518;2023-07-29T09:18:15;22.00;99.90
31809;DHT22;18379;48.208;-1.518;2023-07-29T09:23:16;22.10;99.90
31809;DHT22;18379;48.208;-1.518;2023-07-29T09:28:17;21.90;99.90
31809;DHT22;18379;48.208;-1.518;2023-07-29T09:33:18;22.10;99.90
31809;DHT22;18379;48.208;-1.518;2023-07-29T09:38:27;22.00;99.90
31809;DHT22;18379;48.208;-1.518;2023-07-29T09:43:33;22.10;99.90
31809;DHT22;18379;48.208;-1.518;2023-07-29T09:48:46;22.50;99.90
31809;DHT22;18379;48.208;-1.518;2023-07-29T09:53:57;22.30;99.90
31809;DHT22;18379;48.208;-1.518;2023-07-29T09:59:02;21.90;99.90
31809;DHT22;18379;48.208;-1.518;2023-07-29T10:04:05;22.10;99.90
31809;DHT22;18379;48.208;-1.518;2023-07-29T10:09:06;21.90;99.90
31809;DHT22;18379;48.208;-1.518;2023-07-29T10:14:08;22.00;99.90
31809;DHT22;18379;48.208;-1.518;2023-07-29T10:19:09;22.10;99.90
31809;DHT22;18379;48.208;-1.518;2023-07-29T10:24:15;22.20;99.90
31809;DHT22;18379;48.208;-1.518;2023-07-29T10:29:19;22.30;99.90
31809;DHT22;18379;48.208;-1.518;2023-07-29T10:34:24;22.50;99.90
31809;DHT22;18379;48.208;-1.518;2023-07-29T10:39:25;22.70;99.90
31809;DHT22;18379;48.208;-1.518;2023-07-29T10:44:47;23.10;99.90
31809;DHT22;18379;48.208;-1.518;2023-07-29T10:49:56;23.40;99.90
31809;DHT22;18379;48.208;-1.518;2023-07-29T10:54:57;23.70;99.90
31809;DHT22;18379;48.208;-1.518;2023-07-29T10:59:59;24.10;99.90
31809;DHT22;18379;48.208;-1.518;2023-07-29T11:05:18;24.10;99.90
31809;DHT22;18379;48.208;-1.518;2023-07-29T11:10:19;23.90;99.90
31809;DHT22;18379;48.208;-1.518;2023-07-29T11:15:30;24.30;99.90
31809;DHT22;18379;48.208;-1.518;2023-07-29T11:20:32;24.40;99.90
31809;DHT22;18379;48.208;-1.518;2023-07-29T11:25:33;24.30;99.90
31809;DHT22;18379;48.208;-1.518;2023-07-29T11:30:39;24.70;99.90
31809;DHT22;18379;48.208;-1.518;2023-07-29T11:35:40;24.30;99.90
31809;DHT22;18379;48.208;-1.518;2023-07-29T11:40:40;24.10;99.90
31809;DHT22;18379;48.208;-1.518;2023-07-29T11:45:41;24.30;99.90
31809;DHT22;18379;48.208;-1.518;2023-07-29T11:50:43;24.30;99.90
31809;DHT22;18379;48.208;-1.518;2023-07-29T11:55:51;24.20;99.90
31809;DHT22;18379;48.208;-1.518;2023-07-29T12:00:52;24.10;99.90
31809;DHT22;18379;48.208;-1.518;2023-07-29T12:05:54;24.10;99.90
31809;DHT22;18379;48.208;-1.518;2023-07-29T12:10:55;24.40;99.90
31809;DHT22;18379;48.208;-1.518;2023-07-29T12:16:03;24.60;99.90
31809;DHT22;18379;48.208;-1.518;2023-07-29T12:21:05;24.90;99.90
31809;DHT22;18379;48.208;-1.518;2023-07-29T12:26:07;24.70;99.90
31809;DHT22;18379;48.208;-1.518;2023-07-29T12:31:08;24.40;99.90
31809;DHT22;18379;48.208;-1.518;2023-07-29T12:36:09;25.10;99.90
31809;DHT22;18379;48.208;-1.518;2023-07-29T12:41:11;25.50;99.90
31809;DHT22;18379;48.208;-1.518;2023-07-29T12:46:11;24.70;99.90
31809;DHT22;18379;48.208;-1.518;2023-07-29T12:51:12;24.40;99.90
31809;DHT22;18379;48.208;-1.518;2023-07-29T12:56:16;24.70;99.90
31809;DHT22;18379;48.208;-1.518;2023-07-29T13:01:16;24.50;99.90
31809;DHT22;18379;48.208;-1.518;2023-07-29T13:06:18;24.10;99.90
31809;DHT22;18379;48.208;-1.518;2023-07-29T13:11:19;24.40;99.90
31809;DHT22;18379;48.208;-1.518;2023-07-29T13:16:20;25.10;99.90
31809;DHT22;18379;48.208;-1.518;2023-07-29T13:21:21;24.90;99.90
31809;DHT22;18379;48.208;-1.518;2023-07-29T13:26:22;24.60;99.90
31809;DHT22;18379;48.208;-1.518;2023-07-29T13:31:23;24.10;99.90
31809;DHT22;18379;48.208;-1.518;2023-07-29T13:36:25;24.00;99.90
31809;DHT22;18379;48.208;-1.518;2023-07-29T13:41:26;24.30;99.90
31809;DHT22;18379;48.208;-1.518;2023-07-29T13:46:33;24.40;99.90
31809;DHT22;18379;48.208;-1.518;2023-07-29T13:51:34;24.60;99.90
31809;DHT22;18379;48.208;-1.518;2023-07-29T13:56:35;24.70;99.90
31809;DHT22;18379;48.208;-1.518;2023-07-29T14:01:39;24.50;99.90
31809;DHT22;18379;48.208;-1.518;2023-07-29T14:06:43;24.60;99.90
31809;DHT22;18379;48.208;-1.518;2023-07-29T14:11:44;25.00;99.90
31809;DHT22;18379;48.208;-1.518;2023-07-29T14:16:45;26.10;99.90
31809;DHT22;18379;48.208;-1.518;2023-07-29T14:21:46;25.70;99.90
31809;DHT22;18379;48.208;-1.518;2023-07-29T14:26:47;24.70;99.90
31809;DHT22;18379;48.208;-1.518;2023-07-29T14:31:48;24.90;99.90
31809;DHT22;18379;48.208;-1.518;2023-07-29T14:36:49;25.30;99.90
31809;DHT22;18379;48.208;-1.518;2023-07-29T14:41:49;25.40;99.90
31809;DHT22;18379;48.208;-1.518;2023-07-29T14:46:50;25.00;99.90
31809;DHT22;18379;48.208;-1.518;2023-07-29T14:51:51;25.20;99.90
31809;DHT22;18379;48.208;-1.518;2023-07-29T14:56:52;24.90;99.90
31809;DHT22;18379;48.208;-1.518;2023-07-29T15:01:54;24.90;99.90
31809;DHT22;18379;48.208;-1.518;2023-07-29T15:06:55;24.60;99.90
31809;DHT22;18379;48.208;-1.518;2023-07-29T15:11:56;24.30;99.90
31809;DHT22;18379;48.208;-1.518;2023-07-29T15:16:57;24.10;99.90
31809;DHT22;18379;48.208;-1.518;2023-07-29T15:21:58;24.00;99.90
31809;DHT22;18379;48.208;-1.518;2023-07-29T15:26:59;21.90;99.90
31809;DHT22;18379;48.208;-1.518;2023-07-29T15:31:59;20.80;99.90
31809;DHT22;18379;48.208;-1.518;2023-07-29T15:37:02;20.40;99.90
31809;DHT22;18379;48.208;-1.518;2023-07-29T15:42:03;20.20;99.90
31809;DHT22;18379;48.208;-1.518;2023-07-29T15:47:04;19.70;99.90
31809;DHT22;18379;48.208;-1.518;2023-07-29T15:52:05;19.80;99.90
31809;DHT22;18379;48.208;-1.518;2023-07-29T15:57:09;19.70;99.90
31809;DHT22;18379;48.208;-1.518;2023-07-29T16:02:10;19.90;99.90
31809;DHT22;18379;48.208;-1.518;2023-07-29T16:07:11;19.50;99.90
31809;DHT22;18379;48.208;-1.518;2023-07-29T16:12:11;19.70;99.90
31809;DHT22;18379;48.208;-1.518;2023-07-29T16:17:12;19.40;99.90
31809;DHT22;18379;48.208;-1.518;2023-07-29T16:22:13;19.30;99.90
31809;DHT22;18379;48.208;-1.518;2023-07-29T16:27:14;19.20;99.90
31809;DHT22;18379;48.208;-1.518;2023-07-29T16:32:18;19.20;99.90
31809;DHT22;18379;48.208;-1.518;2023-07-29T16:37:19;18.70;99.90
31809;DHT22;18379;48.208;-1.518;2023-07-29T16:42:20;18.50;99.90
31809;DHT22;18379;48.208;-1.518;2023-07-29T16:47:20;18.30;99.90
31809;DHT22;18379;48.208;-1.518;2023-07-29T16:52:24;17.70;99.90
31809;DHT22;18379;48.208;-1.518;2023-07-29T16:57:25;17.40;99.90
31809;DHT22;18379;48.208;-1.518;2023-07-29T17:02:25;17.20;99.90
31809;DHT22;18379;48.208;-1.518;2023-07-29T17:07:26;17.10;99.90
31809;DHT22;18379;48.208;-1.518;2023-07-29T17:12:27;17.20;99.90
31809;DHT22;18379;48.208;-1.518;2023-07-29T17:17:28;17.10;99.90
31809;DHT22;18379;48.208;-1.518;2023-07-29T17:22:29;17.10;99.90
31809;DHT22;18379;48.208;-1.518;2023-07-29T17:27:31;17.00;99.90
31809;DHT22;18379;48.208;-1.518;2023-07-29T17:32:32;17.00;99.90
31809;DHT22;18379;48.208;-1.518;2023-07-29T17:37:33;16.80;99.90
31809;DHT22;18379;48.208;-1.518;2023-07-29T17:42:35;16.70;99.90
31809;DHT22;18379;48.208;-1.518;2023-07-29T17:47:36;16.80;99.90
31809;DHT22;18379;48.208;-1.518;2023-07-29T17:52:37;16.80;99.90
31809;DHT22;18379;48.208;-1.518;2023-07-29T17:57:37;17.00;99.90
31809;DHT22;18379;48.208;-1.518;2023-07-29T18:02:38;17.10;99.90
31809;DHT22;18379;48.208;-1.518;2023-07-29T18:07:39;17.20;99.90
31809;DHT22;18379;48.208;-1.518;2023-07-29T18:12:40;17.00;99.90
31809;DHT22;18379;48.208;-1.518;2023-07-29T18:17:42;17.00;99.90
31809;DHT22;18379;48.208;-1.518;2023-07-29T18:22:43;16.90;99.90
31809;DHT22;18379;48.208;-1.518;2023-07-29T18:27:44;17.00;99.90
31809;DHT22;18379;48.208;-1.518;2023-07-29T18:32:45;17.10;99.90
31809;DHT22;18379;48.208;-1.518;2023-07-29T18:37:47;16.90;99.90
31809;DHT22;18379;48.208;-1.518;2023-07-29T18:42:53;17.00;99.90
31809;DHT22;18379;48.208;-1.518;2023-07-29T18:47:54;16.90;99.90
31809;DHT22;18379;48.208;-1.518;2023-07-29T18:52:55;16.90;99.90
31809;DHT22;18379;48.208;-1.518;2023-07-29T18:57:58;17.30;99.90
31809;DHT22;18379;48.208;-1.518;2023-07-29T19:03:00;17.50;99.90
31809;DHT22;18379;48.208;-1.518;2023-07-29T19:08:01;17.70;99.90
31809;DHT22;18379;48.208;-1.518;2023-07-29T19:13:03;17.70;99.90
31809;DHT22;18379;48.208;-1.518;2023-07-29T19:18:04;17.70;99.90
31809;DHT22;18379;48.208;-1.518;2023-07-29T19:23:04;17.70;99.90
31809;DHT22;18379;48.208;-1.518;2023-07-29T19:28:05;17.80;99.90
31809;DHT22;18379;48.208;-1.518;2023-07-29T19:33:07;18.10;99.90
31809;DHT22;18379;48.208;-1.518;2023-07-29T19:38:08;18.00;99.90
31809;DHT22;18379;48.208;-1.518;2023-07-29T19:43:10;18.00;99.90
31809;DHT22;18379;48.208;-1.518;2023-07-29T19:48:11;18.00;99.90
31809;DHT22;18379;48.208;-1.518;2023-07-29T19:53:13;17.90;99.90
31809;DHT22;18379;48.208;-1.518;2023-07-29T19:58:13;17.90;99.90
31809;DHT22;18379;48.208;-1.518;2023-07-29T20:03:14;17.90;99.90
31809;DHT22;18379;48.208;-1.518;2023-07-29T20:08:15;17.70;99.90
31809;DHT22;18379;48.208;-1.518;2023-07-29T20:13:16;17.60;99.90
31809;DHT22;18379;48.208;-1.518;2023-07-29T20:18:17;17.50;99.90
31809;DHT22;18379;48.208;-1.518;2023-07-29T20:23:18;17.30;99.90
31809;DHT22;18379;48.208;-1.518;2023-07-29T20:28:19;17.40;99.90
31809;DHT22;18379;48.208;-1.518;2023-07-29T20:33:21;17.30;99.90
31809;DHT22;18379;48.208;-1.518;2023-07-29T20:38:22;17.10;99.90
31809;DHT22;18379;48.208;-1.518;2023-07-29T20:43:23;17.10;99.90
31809;DHT22;18379;48.208;-1.518;2023-07-29T20:48:24;17.10;99.90
31809;DHT22;18379;48.208;-1.518;2023-07-29T20:53:25;17.10;99.90
31809;DHT22;18379;48.208;-1.518;2023-07-29T20:58:26;17.20;99.90
31809;DHT22;18379;48.208;-1.518;2023-07-29T21:03:27;17.20;99.90
31809;DHT22;18379;48.208;-1.518;2023-07-29T21:08:28;17.30;99.90
31809;DHT22;18379;48.208;-1.518;2023-07-29T21:13:29;17.20;99.90
31809;DHT22;18379;48.208;-1.518;2023-07-29T21:18:30;17.20;99.90
31809;DHT22;18379;48.208;-1.518;2023-07-29T21:23:31;17.10;99.90
31809;DHT22;18379;48.208;-1.518;2023-07-29T21:28:31;17.10;99.90
31809;DHT22;18379;48.208;-1.518;2023-07-29T21:33:32;17.00;99.90
31809;DHT22;18379;48.208;-1.518;2023-07-29T21:38:34;16.90;99.90
31809;DHT22;18379;48.208;-1.518;2023-07-29T21:43:35;16.90;99.90
31809;DHT22;18379;48.208;-1.518;2023-07-29T21:48:35;17.00;99.90
31809;DHT22;18379;48.208;-1.518;2023-07-29T21:53:36;17.00;99.90
31809;DHT22;18379;48.208;-1.518;2023-07-29T21:58:37;17.00;99.90
31809;DHT22;18379;48.208;-1.518;2023-07-29T22:03:38;16.90;99.90
31809;DHT22;18379;48.208;-1.518;2023-07-29T22:08:38;17.00;99.90
31809;DHT22;18379;48.208;-1.518;2023-07-29T22:13:39;16.90;99.90
31809;DHT22;18379;48.208;-1.518;2023-07-29T22:18:40;16.80;99.90
31809;DHT22;18379;48.208;-1.518;2023-07-29T22:23:41;16.50;99.90
31809;DHT22;18379;48.208;-1.518;2023-07-29T22:28:42;16.40;99.90
31809;DHT22;18379;48.208;-1.518;2023-07-29T22:33:42;16.30;99.90
31809;DHT22;18379;48.208;-1.518;2023-07-29T22:38:43;16.40;99.90
31809;DHT22;18379;48.208;-1.518;2023-07-29T22:43:44;16.40;99.90
31809;DHT22;18379;48.208;-1.518;2023-07-29T22:48:45;16.20;99.90
31809;DHT22;18379;48.208;-1.518;2023-07-29T22:53:45;16.20;99.90
31809;DHT22;18379;48.208;-1.518;2023-07-29T22:58:46;16.20;99.90
31809;DHT22;18379;48.208;-1.518;2023-07-29T23:03:47;16.20;99.90
31809;DHT22;18379;48.208;-1.518;2023-07-29T23:08:48;16.10;99.90
31809;DHT22;18379;48.208;-1.518;2023-07-29T23:13:48;16.00;99.90
31809;DHT22;18379;48.208;-1.518;2023-07-29T23:18:49;15.90;99.90
31809;DHT22;18379;48.208;-1.518;2023-07-29T23:23:50;15.80;99.90
31809;DHT22;18379;48.208;-1.518;2023-07-29T23:28:50;15.70;99.90
31809;DHT22;18379;48.208;-1.518;2023-07-29T23:33:51;15.60;99.90
31809;DHT22;18379;48.208;-1.518;2023-07-29T23:38:52;15.50;99.90
31809;DHT22;18379;48.208;-1.518;2023-07-29T23:43:53;15.50;99.90
31809;DHT22;18379;48.208;-1.518;2023-07-29T23:48:53;15.50;99.90
31809;DHT22;18379;48.208;-1.518;2023-07-29T23:53:54;15.50;99.90
31809;DHT22;18379;48.208;-1.518;2023-07-29T23:58:55;15.50;99.90
